Wetter & Webcam

Wetterdaten Diepholz (ETND)

METAR
Data not available. Military Control Zone (MCTR) is not permanently active (HX).

Sunrise (SR) / Sunset (SS)
03:26 / 19:39 UTC

Wetterdaten Bremen (EDDW)

METAR
METAR text: EDDW 180020Z 29006KT CAVOK 16/14 Q1016 Conditions at: EDDW (BREMEN , DE) observed 0020 UTC 18 July 2018 Temperature: 16.0°C (61°F) Dewpoint: 14.0°C (57°F) [RH = 88%] Pressure (altimeter): 30.00 inches Hg (1016.0 mb) Winds: from the WNW (290 degrees) at 7 MPH (6 knots; 3.1 m/s) Visibility: 6 or more miles (10+ km) Ceiling: ceiling and visibility are OK Clouds: unknown Weather: no significant weather observed at this time

Copyright © 2017 Flugplatz Diepholz-Dümmerland

© 2017 Flugplatz Diepholz-Dümmerland